sensor_id;sensor_type;location;lat;lon;timestamp;pressure;altitude;pressure_sealevel;temperature;humidity
77639;BME280;66802;52.574;14.398;2023-05-21T03:00:42;102054.56;;;11.43;75.24
77639;BME280;66802;52.574;14.398;2023-05-21T03:03:07;102052.75;;;11.43;75.35
77639;BME280;66802;52.574;14.398;2023-05-21T03:05:33;102049.28;;;11.41;75.33
77639;BME280;66802;52.574;14.398;2023-05-21T03:07:58;102052.00;;;11.41;75.56
77639;BME280;66802;52.574;14.398;2023-05-21T03:10:24;102060.34;;;11.38;75.67
77639;BME280;66802;52.574;14.398;2023-05-21T03:12:50;102058.63;;;11.37;75.54
77639;BME280;66802;52.574;14.398;2023-05-21T03:15:15;102057.94;;;11.35;75.37
77639;BME280;66802;52.574;14.398;2023-05-21T03:17:41;102063.34;;;11.35;75.67
77639;BME280;66802;52.574;14.398;2023-05-21T03:20:08;102049.81;;;11.35;75.55
77639;BME280;66802;52.574;14.398;2023-05-21T03:22:42;102055.06;;;11.37;75.43
77639;BME280;66802;52.574;14.398;2023-05-21T03:25:09;102060.63;;;11.35;75.74
77639;BME280;66802;52.574;14.398;2023-05-21T03:27:34;102054.38;;;11.34;75.23
77639;BME280;66802;52.574;14.398;2023-05-21T03:30:00;102053.09;;;11.39;75.36
77639;BME280;66802;52.574;14.398;2023-05-21T03:32:25;102051.00;;;11.42;75.17
77639;BME280;66802;52.574;14.398;2023-05-21T03:34:51;102042.28;;;11.39;75.27
77639;BME280;66802;52.574;14.398;2023-05-21T03:37:16;102043.28;;;11.38;74.85
77639;BME280;66802;52.574;14.398;2023-05-21T03:39:42;102037.28;;;11.34;75.46
77639;BME280;66802;52.574;14.398;2023-05-21T03:42:08;102043.69;;;11.33;75.68
77639;BME280;66802;52.574;14.398;2023-05-21T03:44:33;102034.19;;;11.39;75.42
77639;BME280;66802;52.574;14.398;2023-05-21T03:46:59;102041.06;;;11.43;75.53
77639;BME280;66802;52.574;14.398;2023-05-21T03:49:24;102045.34;;;11.45;74.94
77639;BME280;66802;52.574;14.398;2023-05-21T03:51:51;102043.13;;;11.50;75.41
77639;BME280;66802;52.574;14.398;2023-05-21T03:54:17;102038.91;;;11.57;74.96
77639;BME280;66802;52.574;14.398;2023-05-21T03:56:43;102046.19;;;11.57;82.36
77639;BME280;66802;52.574;14.398;2023-05-21T03:59:09;102046.38;;;11.65;86.16
77639;BME280;66802;52.574;14.398;2023-05-21T04:01:34;102048.44;;;11.73;87.32
77639;BME280;66802;52.574;14.398;2023-05-21T04:04:00;102053.78;;;11.95;87.71
77639;BME280;66802;52.574;14.398;2023-05-21T04:06:26;102056.59;;;12.14;87.88
77639;BME280;66802;52.574;14.398;2023-05-21T04:08:52;102060.97;;;12.26;87.93
77639;BME280;66802;52.574;14.398;2023-05-21T04:11:18;102066.63;;;12.44;88.41
77639;BME280;66802;52.574;14.398;2023-05-21T04:13:43;102061.84;;;12.57;88.04
77639;BME280;66802;52.574;14.398;2023-05-21T04:16:09;102063.75;;;12.66;87.92
77639;BME280;66802;52.574;14.398;2023-05-21T04:18:35;102071.34;;;12.72;88.07
77639;BME280;66802;52.574;14.398;2023-05-21T04:21:00;102055.69;;;12.76;87.71
77639;BME280;66802;52.574;14.398;2023-05-21T04:23:26;102051.72;;;12.90;87.30
77639;BME280;66802;52.574;14.398;2023-05-21T04:25:52;102054.63;;;12.98;87.36
77639;BME280;66802;52.574;14.398;2023-05-21T04:28:18;102044.34;;;13.01;87.42
77639;BME280;66802;52.574;14.398;2023-05-21T04:30:45;102058.06;;;13.09;86.97
77639;BME280;66802;52.574;14.398;2023-05-21T04:33:11;102057.94;;;13.11;87.15
77639;BME280;66802;52.574;14.398;2023-05-21T04:35:39;102050.66;;;13.11;87.28
77639;BME280;66802;52.574;14.398;2023-05-21T04:38:09;102055.34;;;13.09;87.06
77639;BME280;66802;52.574;14.398;2023-05-21T04:40:34;102055.53;;;13.08;87.13
77639;BME280;66802;52.574;14.398;2023-05-21T04:43:00;102054.66;;;13.07;87.54
77639;BME280;66802;52.574;14.398;2023-05-21T04:45:26;102055.72;;;13.16;87.55
77639;BME280;66802;52.574;14.398;2023-05-21T04:47:52;102056.44;;;13.28;87.85
77639;BME280;66802;52.574;14.398;2023-05-21T04:50:18;102060.47;;;13.43;87.49
77639;BME280;66802;52.574;14.398;2023-05-21T04:52:44;102053.63;;;13.58;87.04
77639;BME280;66802;52.574;14.398;2023-05-21T04:55:10;102057.06;;;13.79;86.27
77639;BME280;66802;52.574;14.398;2023-05-21T04:57:36;102057.91;;;13.99;85.91
77639;BME280;66802;52.574;14.398;2023-05-21T05:00:02;102062.47;;;14.08;84.51
77639;BME280;66802;52.574;14.398;2023-05-21T05:02:30;102057.88;;;14.18;85.27
77639;BME280;66802;52.574;14.398;2023-05-21T05:04:55;102062.88;;;14.23;84.38
77639;BME280;66802;52.574;14.398;2023-05-21T05:07:21;102056.31;;;14.25;84.61
77639;BME280;66802;52.574;14.398;2023-05-21T05:09:47;102060.00;;;14.34;84.37
77639;BME280;66802;52.574;14.398;2023-05-21T05:12:12;102056.44;;;14.43;84.39
77639;BME280;66802;52.574;14.398;2023-05-21T05:14:38;102056.25;;;14.54;83.58
77639;BME280;66802;52.574;14.398;2023-05-21T05:17:04;102061.22;;;14.69;83.79
77639;BME280;66802;52.574;14.398;2023-05-21T05:19:29;102058.38;;;14.70;83.27
77639;BME280;66802;52.574;14.398;2023-05-21T05:21:56;102052.88;;;14.80;82.87
77639;BME280;66802;52.574;14.398;2023-05-21T05:24:21;102056.84;;;14.85;83.29
77639;BME280;66802;52.574;14.398;2023-05-21T05:26:47;102052.78;;;14.99;82.40
77639;BME280;66802;52.574;14.398;2023-05-21T05:29:13;102051.88;;;15.08;82.63
77639;BME280;66802;52.574;14.398;2023-05-21T05:31:38;102050.44;;;15.14;81.98
77639;BME280;66802;52.574;14.398;2023-05-21T05:34:04;102051.81;;;15.18;81.85
77639;BME280;66802;52.574;14.398;2023-05-21T05:36:29;102044.88;;;15.33;82.21
77639;BME280;66802;52.574;14.398;2023-05-21T05:38:55;102043.09;;;15.42;80.69
77639;BME280;66802;52.574;14.398;2023-05-21T05:41:21;102050.47;;;15.49;81.29
77639;BME280;66802;52.574;14.398;2023-05-21T05:43:47;102050.81;;;15.64;80.54
77639;BME280;66802;52.574;14.398;2023-05-21T05:46:12;102051.19;;;15.69;79.83
77639;BME280;66802;52.574;14.398;2023-05-21T05:48:38;102051.81;;;15.81;80.33
77639;BME280;66802;52.574;14.398;2023-05-21T05:51:04;102050.56;;;15.93;80.34
77639;BME280;66802;52.574;14.398;2023-05-21T05:53:30;102053.91;;;16.04;79.91
77639;BME280;66802;52.574;14.398;2023-05-21T05:55:56;102058.16;;;16.25;78.84
77639;BME280;66802;52.574;14.398;2023-05-21T05:58:22;102046.53;;;16.40;77.83
77639;BME280;66802;52.574;14.398;2023-05-21T06:00:47;102045.56;;;16.50;78.08
77639;BME280;66802;52.574;14.398;2023-05-21T06:03:13;102043.63;;;16.68;76.73
77639;BME280;66802;52.574;14.398;2023-05-21T06:05:38;102045.84;;;16.64;76.32
77639;BME280;66802;52.574;14.398;2023-05-21T06:08:04;102046.31;;;16.86;75.70
77639;BME280;66802;52.574;14.398;2023-05-21T06:10:30;102042.28;;;16.98;75.22
77639;BME280;66802;52.574;14.398;2023-05-21T06:12:56;102041.63;;;17.20;74.07
77639;BME280;66802;52.574;14.398;2023-05-21T06:15:21;102035.84;;;17.23;74.46
77639;BME280;66802;52.574;14.398;2023-05-21T06:17:47;102033.19;;;17.39;74.42
77639;BME280;66802;52.574;14.398;2023-05-21T06:20:12;102035.78;;;17.57;73.72
77639;BME280;66802;52.574;14.398;2023-05-21T06:22:38;102039.75;;;17.63;73.07
77639;BME280;66802;52.574;14.398;2023-05-21T06:25:04;102031.03;;;17.75;73.03
77639;BME280;66802;52.574;14.398;2023-05-21T06:27:31;102032.25;;;17.89;73.00
77639;BME280;66802;52.574;14.398;2023-05-21T06:29:57;102028.31;;;18.08;71.55
77639;BME280;66802;52.574;14.398;2023-05-21T06:32:23;102024.91;;;18.14;71.44
77639;BME280;66802;52.574;14.398;2023-05-21T06:34:49;102024.00;;;18.30;71.79
77639;BME280;66802;52.574;14.398;2023-05-21T06:37:19;102031.34;;;18.29;70.11
77639;BME280;66802;52.574;14.398;2023-05-21T06:39:47;102026.06;;;18.36;70.67
77639;BME280;66802;52.574;14.398;2023-05-21T06:42:13;102031.00;;;18.48;69.56
77639;BME280;66802;52.574;14.398;2023-05-21T06:47:48;102034.34;;;18.75;69.38
77639;BME280;66802;52.574;14.398;2023-05-21T06:50:14;102035.16;;;18.91;69.14
77639;BME280;66802;52.574;14.398;2023-05-21T06:52:40;102025.94;;;18.84;68.69
77639;BME280;66802;52.574;14.398;2023-05-21T06:55:06;102026.81;;;19.16;67.74
77639;BME280;66802;52.574;14.398;2023-05-21T06:57:31;102031.59;;;19.22;67.44
77639;BME280;66802;52.574;14.398;2023-05-21T06:59:57;102028.06;;;19.05;67.67
77639;BME280;66802;52.574;14.398;2023-05-21T07:02:23;102025.78;;;19.17;67.75
77639;BME280;66802;52.574;14.398;2023-05-21T07:04:49;102027.38;;;19.11;67.76
77639;BME280;66802;52.574;14.398;2023-05-21T07:07:14;102032.03;;;19.33;67.50
77639;BME280;66802;52.574;14.398;2023-05-21T07:09:40;102026.56;;;19.64;67.21
77639;BME280;66802;52.574;14.398;2023-05-21T07:12:06;102021.97;;;19.80;65.75
77639;BME280;66802;52.574;14.398;2023-05-21T07:14:32;102027.00;;;19.76;66.16
77639;BME280;66802;52.574;14.398;2023-05-21T07:16:57;102029.47;;;19.63;66.71
77639;BME280;66802;52.574;14.398;2023-05-21T07:19:23;102025.63;;;19.72;66.14
77639;BME280;66802;52.574;14.398;2023-05-21T07:21:48;102027.94;;;19.83;65.75
77639;BME280;66802;52.574;14.398;2023-05-21T07:24:14;102030.63;;;19.68;66.10
77639;BME280;66802;52.574;14.398;2023-05-21T07:26:41;102031.88;;;19.89;64.96
77639;BME280;66802;52.574;14.398;2023-05-21T07:29:06;102026.00;;;19.92;65.49
77639;BME280;66802;52.574;14.398;2023-05-21T07:31:32;102028.03;;;20.13;64.62
77639;BME280;66802;52.574;14.398;2023-05-21T07:33:58;102025.34;;;20.27;64.68
77639;BME280;66802;52.574;14.398;2023-05-21T07:36:23;102026.28;;;20.34;63.69
77639;BME280;66802;52.574;14.398;2023-05-21T07:38:50;102021.41;;;20.45;64.64
77639;BME280;66802;52.574;14.398;2023-05-21T07:41:15;102023.97;;;20.46;63.38
77639;BME280;66802;52.574;14.398;2023-05-21T07:43:43;102026.28;;;20.20;64.26
77639;BME280;66802;52.574;14.398;2023-05-21T07:46:09;102025.41;;;20.19;64.35
77639;BME280;66802;52.574;14.398;2023-05-21T07:48:35;102023.53;;;20.34;64.40
77639;BME280;66802;52.574;14.398;2023-05-21T07:51:00;102026.78;;;20.38;64.43
77639;BME280;66802;52.574;14.398;2023-05-21T07:53:26;102031.06;;;20.40;64.39
77639;BME280;66802;52.574;14.398;2023-05-21T07:55:53;102033.50;;;20.35;64.26
77639;BME280;66802;52.574;14.398;2023-05-21T07:58:18;102032.19;;;20.46;64.21
77639;BME280;66802;52.574;14.398;2023-05-21T08:00:45;102030.59;;;20.52;63.70
77639;BME280;66802;52.574;14.398;2023-05-21T08:03:16;102030.78;;;20.50;63.60
77639;BME280;66802;52.574;14.398;2023-05-21T08:05:42;102027.94;;;20.58;63.77
77639;BME280;66802;52.574;14.398;2023-05-21T08:08:16;102027.78;;;20.74;63.97
77639;BME280;66802;52.574;14.398;2023-05-21T08:10:45;102024.19;;;20.74;62.93
77639;BME280;66802;52.574;14.398;2023-05-21T08:13:15;102025.66;;;21.06;63.55
77639;BME280;66802;52.574;14.398;2023-05-21T08:15:41;102027.63;;;21.27;61.60
77639;BME280;66802;52.574;14.398;2023-05-21T08:18:07;102027.47;;;21.49;61.36
77639;BME280;66802;52.574;14.398;2023-05-21T08:23:08;102010.78;;;21.94;59.89
77639;BME280;66802;52.574;14.398;2023-05-21T08:25:59;102020.03;;;22.07;58.98
77639;BME280;66802;52.574;14.398;2023-05-21T08:28:29;102022.78;;;22.07;59.67
77639;BME280;66802;52.574;14.398;2023-05-21T08:36:37;102027.81;;;22.25;58.84
77639;BME280;66802;52.574;14.398;2023-05-21T08:39:10;102032.25;;;22.26;59.24
77639;BME280;66802;52.574;14.398;2023-05-21T08:41:54;102027.44;;;22.35;57.92
77639;BME280;66802;52.574;14.398;2023-05-21T08:44:40;102028.97;;;22.37;59.30
77639;BME280;66802;52.574;14.398;2023-05-21T08:47:16;102031.59;;;22.52;57.71
77639;BME280;66802;52.574;14.398;2023-05-21T08:50:32;102031.88;;;22.64;57.41
77639;BME280;66802;52.574;14.398;2023-05-21T08:53:08;102029.13;;;22.64;56.72
77639;BME280;66802;52.574;14.398;2023-05-21T08:55:57;102030.75;;;22.86;56.10
77639;BME280;66802;52.574;14.398;2023-05-21T08:58:40;102024.25;;;22.66;55.93
77639;BME280;66802;52.574;14.398;2023-05-21T09:01:32;102018.88;;;22.79;56.80
77639;BME280;66802;52.574;14.398;2023-05-21T09:07:15;102021.78;;;22.71;55.84
77639;BME280;66802;52.574;14.398;2023-05-21T09:10:06;102014.25;;;22.86;55.28
77639;BME280;66802;52.574;14.398;2023-05-21T09:12:36;102019.75;;;22.86;54.96
77639;BME280;66802;52.574;14.398;2023-05-21T09:15:03;102013.47;;;22.99;54.94
77639;BME280;66802;52.574;14.398;2023-05-21T09:17:32;102012.59;;;22.91;54.92
77639;BME280;66802;52.574;14.398;2023-05-21T09:20:14;102010.72;;;22.99;55.34
77639;BME280;66802;52.574;14.398;2023-05-21T09:22:44;102006.97;;;23.13;55.26
77639;BME280;66802;52.574;14.398;2023-05-21T09:25:30;102013.44;;;23.46;54.36
77639;BME280;66802;52.574;14.398;2023-05-21T09:28:14;102011.34;;;23.55;52.93
77639;BME280;66802;52.574;14.398;2023-05-21T09:30:47;102013.25;;;23.61;52.72
77639;BME280;66802;52.574;14.398;2023-05-21T09:37:05;102015.03;;;24.08;52.80
77639;BME280;66802;52.574;14.398;2023-05-21T09:39:41;102020.31;;;24.36;51.20
77639;BME280;66802;52.574;14.398;2023-05-21T09:45:03;102008.22;;;24.50;48.71
77639;BME280;66802;52.574;14.398;2023-05-21T09:47:31;102006.28;;;24.51;50.20
77639;BME280;66802;52.574;14.398;2023-05-21T09:49:57;102001.00;;;24.43;49.07
77639;BME280;66802;52.574;14.398;2023-05-21T09:52:23;102001.59;;;24.58;48.54
77639;BME280;66802;52.574;14.398;2023-05-21T09:54:54;102003.31;;;24.65;48.99
77639;BME280;66802;52.574;14.398;2023-05-21T09:57:24;102002.41;;;24.71;48.78
77639;BME280;66802;52.574;14.398;2023-05-21T09:59:52;102006.63;;;24.87;47.78
77639;BME280;66802;52.574;14.398;2023-05-21T10:02:31;102002.59;;;24.96;47.28
77639;BME280;66802;52.574;14.398;2023-05-21T10:05:04;101997.66;;;25.05;46.50
77639;BME280;66802;52.574;14.398;2023-05-21T10:07:35;101990.97;;;25.26;46.29
77639;BME280;66802;52.574;14.398;2023-05-21T10:10:03;101983.31;;;25.21;45.55
77639;BME280;66802;52.574;14.398;2023-05-21T10:12:34;101987.22;;;25.45;46.79
77639;BME280;66802;52.574;14.398;2023-05-21T10:15:03;101984.31;;;25.71;43.17
77639;BME280;66802;52.574;14.398;2023-05-21T10:17:33;101983.13;;;25.61;44.07
77639;BME280;66802;52.574;14.398;2023-05-21T10:19:59;101971.13;;;25.73;43.62
77639;BME280;66802;52.574;14.398;2023-05-21T10:22:26;101973.06;;;25.66;42.42
77639;BME280;66802;52.574;14.398;2023-05-21T10:24:56;101973.25;;;25.71;42.75
77639;BME280;66802;52.574;14.398;2023-05-21T10:27:23;101967.44;;;25.79;42.30
77639;BME280;66802;52.574;14.398;2023-05-21T10:29:48;101960.50;;;25.70;41.67
77639;BME280;66802;52.574;14.398;2023-05-21T10:32:15;101952.47;;;25.87;42.17
77639;BME280;66802;52.574;14.398;2023-05-21T10:34:44;101948.41;;;25.90;41.00
77639;BME280;66802;52.574;14.398;2023-05-21T10:37:12;101958.44;;;26.09;43.05
77639;BME280;66802;52.574;14.398;2023-05-21T10:39:38;101954.56;;;26.16;40.54
77639;BME280;66802;52.574;14.398;2023-05-21T10:48:59;101932.97;;;26.00;39.54
77639;BME280;66802;52.574;14.398;2023-05-21T10:58:08;101936.06;;;25.92;39.08
77639;BME280;66802;52.574;14.398;2023-05-21T11:00:32;101928.53;;;25.99;38.93
77639;BME280;66802;52.574;14.398;2023-05-21T11:02:59;101932.16;;;26.18;39.69
77639;BME280;66802;52.574;14.398;2023-05-21T11:05:52;101931.25;;;26.24;39.44
77639;BME280;66802;52.574;14.398;2023-05-21T11:08:25;101928.00;;;26.34;39.47
77639;BME280;66802;52.574;14.398;2023-05-21T11:10:54;101924.88;;;26.24;37.77
77639;BME280;66802;52.574;14.398;2023-05-21T11:13:23;101924.22;;;26.03;38.18
77639;BME280;66802;52.574;14.398;2023-05-21T11:16:14;101923.75;;;25.63;37.73
77639;BME280;66802;52.574;14.398;2023-05-21T11:18:55;101926.00;;;25.73;39.04
77639;BME280;66802;52.574;14.398;2023-05-21T11:21:33;101919.16;;;25.75;38.55
77639;BME280;66802;52.574;14.398;2023-05-21T11:24:02;101925.41;;;25.89;39.52
77639;BME280;66802;52.574;14.398;2023-05-21T11:26:58;101918.03;;;25.83;37.82
77639;BME280;66802;52.574;14.398;2023-05-21T11:29:17;101922.63;;;25.71;37.58
77639;BME280;66802;52.574;14.398;2023-05-21T11:31:48;101921.25;;;25.80;37.81
77639;BME280;66802;52.574;14.398;2023-05-21T11:34:23;101920.59;;;25.85;38.77
77639;BME280;66802;52.574;14.398;2023-05-21T11:39:56;101917.81;;;25.85;38.13
77639;BME280;66802;52.574;14.398;2023-05-21T11:42:38;101912.75;;;26.00;37.82
77639;BME280;66802;52.574;14.398;2023-05-21T11:45:13;101925.31;;;26.02;38.58
77639;BME280;66802;52.574;14.398;2023-05-21T11:47:48;101923.22;;;25.98;38.21
77639;BME280;66802;52.574;14.398;2023-05-21T11:53:50;101918.69;;;26.28;37.46
77639;BME280;66802;52.574;14.398;2023-05-21T11:56:19;101919.56;;;26.22;37.09
77639;BME280;66802;52.574;14.398;2023-05-21T11:58:45;101914.16;;;26.34;37.05
77639;BME280;66802;52.574;14.398;2023-05-21T12:01:23;101915.38;;;26.38;37.24
77639;BME280;66802;52.574;14.398;2023-05-21T12:03:49;101917.22;;;26.44;36.29
77639;BME280;66802;52.574;14.398;2023-05-21T12:06:17;101911.91;;;26.42;36.43
77639;BME280;66802;52.574;14.398;2023-05-21T12:08:42;101914.44;;;26.26;37.26
77639;BME280;66802;52.574;14.398;2023-05-21T12:11:09;101907.53;;;26.10;35.70
77639;BME280;66802;52.574;14.398;2023-05-21T12:13:35;101916.38;;;26.00;36.07
77639;BME280;66802;52.574;14.398;2023-05-21T12:16:01;101925.00;;;26.10;35.88
77639;BME280;66802;52.574;14.398;2023-05-21T12:18:30;101915.84;;;26.10;37.12
77639;BME280;66802;52.574;14.398;2023-05-21T12:20:56;101909.94;;;26.06;36.50
77639;BME280;66802;52.574;14.398;2023-05-21T12:23:25;101914.22;;;26.02;35.13
77639;BME280;66802;52.574;14.398;2023-05-21T12:25:51;101912.84;;;26.11;35.50
77639;BME280;66802;52.574;14.398;2023-05-21T12:28:20;101906.03;;;26.14;35.24
77639;BME280;66802;52.574;14.398;2023-05-21T12:30:46;101906.41;;;26.17;35.39
77639;BME280;66802;52.574;14.398;2023-05-21T12:33:12;101905.72;;;26.22;35.28
77639;BME280;66802;52.574;14.398;2023-05-21T12:35:38;101907.63;;;26.22;36.50
77639;BME280;66802;52.574;14.398;2023-05-21T12:38:06;101910.22;;;26.41;35.96
77639;BME280;66802;52.574;14.398;2023-05-21T12:40:36;101912.06;;;26.47;36.71
77639;BME280;66802;52.574;14.398;2023-05-21T12:43:02;101906.84;;;26.58;36.39
77639;BME280;66802;52.574;14.398;2023-05-21T12:45:31;101908.53;;;26.59;36.28
77639;BME280;66802;52.574;14.398;2023-05-21T12:48:00;101912.28;;;26.64;36.61
77639;BME280;66802;52.574;14.398;2023-05-21T12:50:29;101905.78;;;26.88;35.65
77639;BME280;66802;52.574;14.398;2023-05-21T12:52:55;101898.66;;;26.81;33.90
77639;BME280;66802;52.574;14.398;2023-05-21T12:55:23;101894.41;;;26.78;33.76
77639;BME280;66802;52.574;14.398;2023-05-21T12:58:03;101901.94;;;26.89;34.43
77639;BME280;66802;52.574;14.398;2023-05-21T13:00:32;101905.00;;;26.70;34.78
77639;BME280;66802;52.574;14.398;2023-05-21T13:02:57;101895.88;;;26.81;34.61
77639;BME280;66802;52.574;14.398;2023-05-21T13:05:25;101895.59;;;26.71;34.51
77639;BME280;66802;52.574;14.398;2023-05-21T13:07:51;101892.41;;;26.85;34.34
77639;BME280;66802;52.574;14.398;2023-05-21T13:10:16;101891.22;;;26.45;33.88
77639;BME280;66802;52.574;14.398;2023-05-21T13:12:43;101896.84;;;26.38;36.16
77639;BME280;66802;52.574;14.398;2023-05-21T13:15:09;101894.66;;;26.22;34.97
77639;BME280;66802;52.574;14.398;2023-05-21T13:17:38;101884.66;;;26.21;35.09
77639;BME280;66802;52.574;14.398;2023-05-21T13:22:35;101884.78;;;26.08;35.41
77639;BME280;66802;52.574;14.398;2023-05-21T13:25:04;101891.19;;;26.27;35.99
77639;BME280;66802;52.574;14.398;2023-05-21T13:27:30;101891.13;;;26.33;34.69
77639;BME280;66802;52.574;14.398;2023-05-21T13:29:56;101881.66;;;26.04;34.87
77639;BME280;66802;52.574;14.398;2023-05-21T13:32:22;101874.56;;;26.08;35.46
77639;BME280;66802;52.574;14.398;2023-05-21T13:34:48;101880.88;;;26.15;36.02
77639;BME280;66802;52.574;14.398;2023-05-21T13:37:13;101878.34;;;26.14;35.33
77639;BME280;66802;52.574;14.398;2023-05-21T13:39:39;101877.63;;;26.18;34.20
77639;BME280;66802;52.574;14.398;2023-05-21T13:42:05;101874.69;;;26.38;35.11
77639;BME280;66802;52.574;14.398;2023-05-21T13:44:31;101871.16;;;26.49;34.98
77639;BME280;66802;52.574;14.398;2023-05-21T13:47:03;101867.66;;;26.54;35.74
77639;BME280;66802;52.574;14.398;2023-05-21T13:49:28;101868.81;;;26.65;35.70
77639;BME280;66802;52.574;14.398;2023-05-21T13:51:54;101863.88;;;26.67;33.99
77639;BME280;66802;52.574;14.398;2023-05-21T13:54:20;101869.31;;;26.73;34.30
77639;BME280;66802;52.574;14.398;2023-05-21T13:56:46;101866.66;;;26.67;35.01
77639;BME280;66802;52.574;14.398;2023-05-21T13:59:11;101865.69;;;26.73;35.92
77639;BME280;66802;52.574;14.398;2023-05-21T14:01:37;101863.22;;;26.83;34.83
77639;BME280;66802;52.574;14.398;2023-05-21T14:04:03;101850.22;;;26.83;34.61
77639;BME280;66802;52.574;14.398;2023-05-21T14:06:33;101857.22;;;26.86;35.01
77639;BME280;66802;52.574;14.398;2023-05-21T14:09:00;101859.22;;;26.97;34.24
77639;BME280;66802;52.574;14.398;2023-05-21T14:11:29;101842.66;;;26.90;34.35
77639;BME280;66802;52.574;14.398;2023-05-21T14:13:56;101843.91;;;26.76;34.48
77639;BME280;66802;52.574;14.398;2023-05-21T14:16:23;101844.06;;;26.81;35.64
77639;BME280;66802;52.574;14.398;2023-05-21T14:18:50;101837.53;;;26.76;34.20
77639;BME280;66802;52.574;14.398;2023-05-21T14:21:16;101845.75;;;26.82;36.02
77639;BME280;66802;52.574;14.398;2023-05-21T14:23:41;101844.59;;;26.90;36.16
77639;BME280;66802;52.574;14.398;2023-05-21T14:26:07;101840.03;;;26.96;34.37
77639;BME280;66802;52.574;14.398;2023-05-21T14:28:32;101844.81;;;26.88;35.26
77639;BME280;66802;52.574;14.398;2023-05-21T14:30:58;101842.81;;;26.96;35.02
77639;BME280;66802;52.574;14.398;2023-05-21T14:33:24;101846.13;;;26.86;34.92
77639;BME280;66802;52.574;14.398;2023-05-21T14:35:49;101849.34;;;26.71;34.36
77639;BME280;66802;52.574;14.398;2023-05-21T14:38:15;101849.63;;;26.81;34.21
77639;BME280;66802;52.574;14.398;2023-05-21T14:40:40;101850.78;;;26.92;34.06
77639;BME280;66802;52.574;14.398;2023-05-21T14:43:06;101855.81;;;26.95;33.00
77639;BME280;66802;52.574;14.398;2023-05-21T14:45:31;101850.22;;;26.83;32.55
77639;BME280;66802;52.574;14.398;2023-05-21T14:48:03;101861.69;;;26.87;33.41
77639;BME280;66802;52.574;14.398;2023-05-21T14:58:29;101854.44;;;26.56;33.80
77639;BME280;66802;52.574;14.398;2023-05-21T15:00:55;101862.88;;;26.25;34.91
77639;BME280;66802;52.574;14.398;2023-05-21T15:03:21;101850.13;;;26.24;34.90
77639;BME280;66802;52.574;14.398;2023-05-21T15:05:46;101860.78;;;26.20;34.51
77639;BME280;66802;52.574;14.398;2023-05-21T15:08:12;101863.34;;;26.03;34.45
77639;BME280;66802;52.574;14.398;2023-05-21T15:10:38;101855.94;;;25.97;35.33
77639;BME280;66802;52.574;14.398;2023-05-21T15:13:03;101860.88;;;25.95;35.88
77639;BME280;66802;52.574;14.398;2023-05-21T15:15:29;101853.88;;;25.93;34.48
77639;BME280;66802;52.574;14.398;2023-05-21T15:17:54;101856.69;;;25.86;34.68
77639;BME280;66802;52.574;14.398;2023-05-21T15:22:52;101849.22;;;25.87;35.27
77639;BME280;66802;52.574;14.398;2023-05-21T15:25:18;101856.94;;;25.85;36.03
77639;BME280;66802;52.574;14.398;2023-05-21T15:27:44;101852.41;;;25.90;36.13
77639;BME280;66802;52.574;14.398;2023-05-21T15:30:10;101844.81;;;26.04;35.14
77639;BME280;66802;52.574;14.398;2023-05-21T15:32:36;101846.72;;;26.03;35.57
77639;BME280;66802;52.574;14.398;2023-05-21T15:35:02;101842.56;;;26.12;35.79
77639;BME280;66802;52.574;14.398;2023-05-21T15:37:28;101838.50;;;26.15;35.69
77639;BME280;66802;52.574;14.398;2023-05-21T15:39:56;101830.91;;;26.29;36.44
77639;BME280;66802;52.574;14.398;2023-05-21T15:42:22;101829.03;;;26.23;35.59
77639;BME280;66802;52.574;14.398;2023-05-21T15:44:47;101835.19;;;26.25;35.70
77639;BME280;66802;52.574;14.398;2023-05-21T15:47:13;101826.28;;;26.23;34.43
77639;BME280;66802;52.574;14.398;2023-05-21T15:49:40;101831.53;;;26.31;34.79
77639;BME280;66802;52.574;14.398;2023-05-21T15:52:06;101823.72;;;26.21;34.91
77639;BME280;66802;52.574;14.398;2023-05-21T15:54:31;101831.28;;;26.32;34.92
77639;BME280;66802;52.574;14.398;2023-05-21T15:56:57;101834.00;;;26.39;34.74
77639;BME280;66802;52.574;14.398;2023-05-21T15:59:22;101834.41;;;26.17;34.22
77639;BME280;66802;52.574;14.398;2023-05-21T16:01:49;101831.34;;;26.07;34.41
77639;BME280;66802;52.574;14.398;2023-05-21T16:04:15;101831.50;;;26.12;34.83
77639;BME280;66802;52.574;14.398;2023-05-21T16:06:44;101828.06;;;26.17;34.82
77639;BME280;66802;52.574;14.398;2023-05-21T16:09:10;101827.50;;;25.90;36.11
77639;BME280;66802;52.574;14.398;2023-05-21T16:11:35;101826.34;;;25.98;34.65
77639;BME280;66802;52.574;14.398;2023-05-21T16:14:01;101822.56;;;25.74;35.30
77639;BME280;66802;52.574;14.398;2023-05-21T16:16:29;101827.78;;;25.57;35.20
77639;BME280;66802;52.574;14.398;2023-05-21T16:18:55;101823.06;;;25.64;34.89
77639;BME280;66802;52.574;14.398;2023-05-21T16:21:20;101822.22;;;25.64;35.47
77639;BME280;66802;52.574;14.398;2023-05-21T16:23:46;101818.31;;;25.46;34.79
77639;BME280;66802;52.574;14.398;2023-05-21T16:26:12;101822.38;;;25.44;34.69
77639;BME280;66802;52.574;14.398;2023-05-21T16:28:37;101821.16;;;25.40;35.02
77639;BME280;66802;52.574;14.398;2023-05-21T16:31:03;101820.56;;;25.31;34.51
77639;BME280;66802;52.574;14.398;2023-05-21T16:33:29;101821.91;;;25.22;36.02
77639;BME280;66802;52.574;14.398;2023-05-21T16:35:54;101816.25;;;25.10;36.91
77639;BME280;66802;52.574;14.398;2023-05-21T16:38:20;101821.06;;;24.90;35.89